createdAt,value
2022-09-09T00:01:37.310Z,97449.20
2022-09-09T00:04:35.414Z,97454.05
2022-09-09T00:07:25.221Z,97454.02
2022-09-09T00:10:20.915Z,97449.67
2022-09-09T00:13:01.839Z,97449.92
2022-09-09T00:15:55.956Z,97449.75
2022-09-09T00:18:49.127Z,97446.95
2022-09-09T00:21:19.020Z,97452.91
2022-09-09T00:23:55.884Z,97450.83
2022-09-09T00:26:45.889Z,97448.44
2022-09-09T00:29:13.611Z,97452.59
2022-09-09T00:31:41.810Z,97456.33
2022-09-09T00:34:20.034Z,97453.66
2022-09-09T00:36:52.399Z,97451.95
2022-09-09T00:39:38.282Z,97453.34
2022-09-09T00:42:15.272Z,97453.12
2022-09-09T00:45:25.147Z,97446.86
2022-09-09T00:47:54.828Z,97446.97
2022-09-09T00:50:41.587Z,97447.11
2022-09-09T00:53:38.439Z,97447.46
2022-09-09T00:56:13.096Z,97445.91
2022-09-09T00:58:59.306Z,97443.52
2022-09-09T01:01:27.310Z,97439.84
2022-09-09T01:03:56.994Z,97437.05
2022-09-09T01:06:36.047Z,97433.77
2022-09-09T01:09:25.418Z,97440.96
2022-09-09T01:12:04.622Z,97441.68
2022-09-09T01:14:43.420Z,97441.75
2022-09-09T01:17:33.785Z,97443.98
2022-09-09T01:20:28.785Z,97447.59
2022-09-09T01:23:17.775Z,97442.30
2022-09-09T01:26:06.231Z,97440.25
2022-09-09T01:28:38.141Z,97432.92
2022-09-09T01:31:15.627Z,97434.75
2022-09-09T01:33:47.555Z,97426.91
2022-09-09T01:36:27.582Z,97415.77
2022-09-09T01:38:57.185Z,97414.20
2022-09-09T01:41:26.250Z,97411.77
2022-09-09T01:44:04.719Z,97406.20
2022-09-09T01:46:34.912Z,97411.84
2022-09-09T01:49:04.964Z,97419.63
2022-09-09T01:51:33.045Z,97416.64
2022-09-09T01:54:04.971Z,97413.35
2022-09-09T01:57:10.415Z,97411.71
2022-09-09T01:59:45.133Z,97411.69
2022-09-09T02:02:20.176Z,97413.46
2022-09-09T02:05:38.136Z,97414.33
2022-09-09T02:08:09.513Z,97422.48
2022-09-09T02:11:08.002Z,97419.90
2022-09-09T02:13:46.405Z,97427.90
2022-09-09T02:16:58.654Z,97429.26
2022-09-09T02:19:36.971Z,97431.71
2022-09-09T02:22:13.431Z,97437.84
2022-09-09T02:24:41.590Z,97447.13
2022-09-09T02:27:22.761Z,97521.56
2022-09-09T02:29:52.567Z,97579.16
2022-09-09T02:32:25.712Z,97564.11
2022-09-09T02:35:03.409Z,97583.83
2022-09-09T02:37:38.367Z,97576.27
2022-09-09T02:40:09.212Z,97570.08
2022-09-09T02:42:44.393Z,97565.16
2022-09-09T02:45:16.292Z,97562.70
2022-09-09T02:47:48.385Z,97573.20
2022-09-09T02:50:24.228Z,97580.83
2022-09-09T02:53:41.389Z,97574.89
2022-09-09T02:56:23.124Z,97577.10
2022-09-09T02:58:52.977Z,97585.45
2022-09-09T03:01:22.077Z,97599.41
2022-09-09T03:03:50.177Z,97600.67
2022-09-09T03:06:18.331Z,97605.00
2022-09-09T03:08:51.016Z,97615.38
2022-09-09T03:11:23.471Z,97618.52
2022-09-09T03:13:52.207Z,97617.79
2022-09-09T03:16:22.490Z,97612.67
2022-09-09T03:18:51.236Z,97604.80
2022-09-09T03:21:19.507Z,97597.87
2022-09-09T03:23:47.921Z,97580.65
2022-09-09T03:26:16.642Z,97585.27
2022-09-09T03:28:46.522Z,97594.55
2022-09-09T03:31:16.935Z,97581.67
2022-09-09T03:33:44.942Z,97581.05
2022-09-09T03:36:15.934Z,97581.29
2022-09-09T03:38:44.001Z,97579.66
2022-09-09T03:41:13.885Z,97578.06
2022-09-09T03:43:43.185Z,97587.08
2022-09-09T03:46:11.463Z,97602.49
2022-09-09T03:48:39.897Z,97595.05
2022-09-09T03:51:08.194Z,97590.29
2022-09-09T03:53:37.798Z,97592.89
2022-09-09T03:56:07.786Z,97597.41
2022-09-09T03:58:37.308Z,97600.17
2022-09-09T04:01:14.446Z,97597.94
2022-09-09T04:03:43.662Z,97599.91
2022-09-09T04:06:14.537Z,97597.23
2022-09-09T04:08:43.763Z,97597.88
2022-09-09T04:11:11.905Z,97605.95
2022-09-09T04:13:40.352Z,97608.38
2022-09-09T04:16:12.706Z,97606.77
2022-09-09T04:18:41.856Z,97605.27
2022-09-09T04:21:11.569Z,97606.29
2022-09-09T04:23:40.421Z,97607.73
2022-09-09T04:26:08.569Z,97599.27
2022-09-09T04:28:38.012Z,97588.95
2022-09-09T04:31:12.759Z,97584.64
2022-09-09T04:33:41.282Z,97577.19
2022-09-09T04:36:10.469Z,97566.37
2022-09-09T04:38:38.825Z,97563.02
2022-09-09T04:41:07.100Z,97557.70
2022-09-09T04:43:35.584Z,97556.41
2022-09-09T04:46:05.952Z,97564.41
2022-09-09T04:48:34.240Z,97558.42
2022-09-09T04:51:06.184Z,97555.43
2022-09-09T04:53:38.429Z,97559.77
2022-09-09T04:56:11.706Z,97563.75
2022-09-09T04:58:44.234Z,97564.59
2022-09-09T05:01:30.310Z,97558.68
2022-09-09T05:04:04.496Z,97550.17
2022-09-09T05:06:34.820Z,97542.14
2022-09-09T05:09:03.442Z,97555.52
2022-09-09T05:11:37.137Z,97570.36
2022-09-09T05:14:40.124Z,97580.63
2022-09-09T05:17:09.748Z,97598.08
2022-09-09T05:19:38.607Z,97598.44
2022-09-09T05:22:06.659Z,97606.71
2022-09-09T05:24:41.618Z,97604.02
2022-09-09T05:27:13.265Z,97612.55
2022-09-09T05:29:44.493Z,97615.85
2022-09-09T05:32:15.502Z,97606.73
2022-09-09T05:34:44.706Z,97585.14
2022-09-09T05:37:13.675Z,97569.23
2022-09-09T05:39:41.947Z,97563.98
2022-09-09T05:42:11.539Z,97567.02
2022-09-09T05:44:39.683Z,97567.31
2022-09-09T05:47:09.736Z,97565.76
2022-09-09T05:49:38.173Z,97559.48
2022-09-09T05:52:07.286Z,97547.02
2022-09-09T05:54:36.080Z,97534.27
2022-09-09T05:57:04.753Z,97525.75
2022-09-09T05:59:33.363Z,97515.59
2022-09-09T06:02:01.898Z,97508.77
2022-09-09T06:04:36.645Z,97503.98
2022-09-09T06:07:06.271Z,97494.11
2022-09-09T06:09:34.504Z,97490.44
2022-09-09T06:12:02.915Z,97497.66
2022-09-09T06:14:32.566Z,97505.48
2022-09-09T06:17:01.123Z,97519.81
2022-09-09T06:19:31.906Z,97534.08
2022-09-09T06:22:00.872Z,97535.34
2022-09-09T06:24:31.583Z,97541.97
2022-09-09T06:27:01.460Z,97551.98
2022-09-09T06:29:33.279Z,97556.56
2022-09-09T06:32:03.026Z,97539.48
2022-09-09T06:34:33.306Z,97531.08
2022-09-09T06:37:01.652Z,97536.53
2022-09-09T06:39:50.327Z,97537.35
2022-09-09T06:42:18.852Z,97537.33
2022-09-09T06:44:46.899Z,97534.31
2022-09-09T06:47:20.987Z,97527.66
2022-09-09T06:49:49.273Z,97522.77
2022-09-09T06:52:19.270Z,97518.02
2022-09-09T06:54:48.392Z,97518.66
2022-09-09T07:00:09.214Z,97523.39
2022-09-09T07:02:40.498Z,97530.07
2022-09-09T07:05:09.841Z,97526.06
2022-09-09T07:07:38.963Z,97525.48
2022-09-09T07:10:08.701Z,97528.23
2022-09-09T07:12:38.223Z,97529.42
2022-09-09T07:15:06.976Z,97533.31
2022-09-09T07:17:35.012Z,97536.90
2022-09-09T07:20:05.350Z,97538.81
2022-09-09T07:22:34.752Z,97538.88
2022-09-09T07:25:03.367Z,97540.34
2022-09-09T07:27:31.610Z,97539.11
2022-09-09T07:30:00.286Z,97540.35
2022-09-09T07:32:31.629Z,97538.59
2022-09-09T07:34:59.564Z,97545.63
2022-09-09T07:37:28.419Z,97549.23
2022-09-09T07:39:56.576Z,97548.63
2022-09-09T07:42:24.525Z,97547.29
2022-09-09T07:44:55.980Z,97548.30
2022-09-09T07:47:25.854Z,97550.88
2022-09-09T07:49:54.227Z,97549.14
2022-09-09T07:52:27.693Z,97548.56
2022-09-09T07:54:58.410Z,97551.52
2022-09-09T07:57:27.113Z,97548.23
2022-09-09T07:59:55.556Z,97549.05
2022-09-09T08:02:27.212Z,97544.73
2022-09-09T08:04:55.504Z,97546.83
2022-09-09T08:07:24.501Z,97545.30
2022-09-09T08:09:56.768Z,97542.92
2022-09-09T08:12:28.839Z,97538.35
2022-09-09T08:14:57.709Z,97533.45
2022-09-09T08:17:28.782Z,97534.11
2022-09-09T08:19:58.044Z,97532.38
2022-09-09T08:22:29.008Z,97532.50
2022-09-09T08:24:57.525Z,97533.06
2022-09-09T08:27:26.574Z,97533.86
2022-09-09T08:29:54.994Z,97521.30
2022-09-09T08:32:25.135Z,97509.45
2022-09-09T08:34:54.543Z,97499.41
2022-09-09T08:37:26.306Z,97493.21
2022-09-09T08:39:55.560Z,97495.08
2022-09-09T08:42:37.772Z,97498.38
2022-09-09T08:45:30.720Z,97500.59
2022-09-09T08:48:10.595Z,97498.73
2022-09-09T08:50:44.606Z,97497.06
2022-09-09T08:53:31.770Z,97503.29
2022-09-09T08:56:12.722Z,97506.38
2022-09-09T08:58:50.759Z,97502.67
2022-09-09T09:01:24.424Z,97506.22
2022-09-09T09:04:20.968Z,97502.86
2022-09-09T09:07:17.517Z,97508.54
2022-09-09T09:10:00.079Z,97515.59
2022-09-09T09:12:34.010Z,97521.75
2022-09-09T09:15:03.477Z,97524.95
2022-09-09T09:17:34.292Z,97526.15
2022-09-09T09:20:04.425Z,97523.22
2022-09-09T09:22:45.812Z,97525.80
2022-09-09T09:25:19.926Z,97527.80
2022-09-09T09:28:11.503Z,97526.55
2022-09-09T09:30:48.498Z,97519.39
2022-09-09T09:33:23.365Z,97512.52
2022-09-09T09:35:51.936Z,97507.47
2022-09-09T09:41:12.965Z,97516.21
2022-09-09T09:43:45.550Z,97521.37
2022-09-09T09:46:26.946Z,97523.55
2022-09-09T09:49:06.466Z,97526.05
2022-09-09T09:51:36.641Z,97524.31
2022-09-09T09:54:17.083Z,97520.99
2022-09-09T09:56:48.865Z,97518.77
2022-09-09T09:59:38.764Z,97514.23
2022-09-09T10:02:14.403Z,97515.41
2022-09-09T10:04:43.201Z,97513.19
2022-09-09T10:07:23.415Z,97513.64
2022-09-09T10:09:57.214Z,97513.45
2022-09-09T10:12:50.151Z,97509.75
2022-09-09T10:15:47.623Z,97504.00
2022-09-09T10:18:38.925Z,97505.59
2022-09-09T10:21:33.359Z,97502.08
2022-09-09T10:24:24.223Z,97502.34
2022-09-09T10:27:27.750Z,97507.15
2022-09-09T10:30:26.103Z,97506.19
2022-09-09T10:35:55.465Z,97516.30
2022-09-09T10:38:44.593Z,97520.67
2022-09-09T10:41:27.958Z,97518.45
2022-09-09T10:44:20.269Z,97520.45
2022-09-09T10:47:16.849Z,97527.36
2022-09-09T10:49:53.847Z,97532.08
2022-09-09T10:52:33.139Z,97527.38
2022-09-09T10:55:19.437Z,97527.23
2022-09-09T10:57:58.713Z,97528.59
2022-09-09T11:00:48.801Z,97528.85
2022-09-09T11:03:35.846Z,97526.31
2022-09-09T11:06:15.166Z,97529.17
2022-09-09T11:08:43.561Z,97529.92
2022-09-09T11:11:12.905Z,97523.52
2022-09-09T11:13:52.745Z,97520.02
2022-09-09T11:16:54.084Z,97512.78
2022-09-09T11:19:44.691Z,97514.64
2022-09-09T11:22:34.591Z,97517.04
2022-09-09T11:25:18.805Z,97516.61
2022-09-09T11:28:05.300Z,97517.33
2022-09-09T11:30:56.175Z,97518.48
2022-09-09T11:34:03.140Z,97510.17
2022-09-09T11:36:37.195Z,97506.28
2022-09-09T11:39:31.300Z,97509.94
2022-09-09T11:42:22.228Z,97513.20
2022-09-09T11:44:51.237Z,97507.17
2022-09-09T11:47:32.695Z,97503.56
2022-09-09T11:50:15.750Z,97496.66
2022-09-09T11:52:49.534Z,97494.36
2022-09-09T11:55:28.052Z,97497.20
2022-09-09T11:58:16.666Z,97492.98
2022-09-09T12:00:51.063Z,97491.80
2022-09-09T12:03:46.274Z,97492.70
2022-09-09T12:06:14.599Z,97492.71
2022-09-09T12:08:46.673Z,97491.15
2022-09-09T12:11:25.607Z,97486.44
2022-09-09T12:13:55.757Z,97486.00
2022-09-09T12:16:35.627Z,97481.20
2022-09-09T12:19:13.367Z,97483.31
2022-09-09T12:22:05.386Z,97482.96
2022-09-09T12:25:23.714Z,97476.16
2022-09-09T12:28:06.429Z,97466.23
2022-09-09T12:30:59.471Z,97461.83
2022-09-09T12:33:36.756Z,97461.55
2022-09-09T12:36:07.541Z,97462.74
2022-09-09T12:38:41.531Z,97455.52
2022-09-09T12:41:21.295Z,97452.92
2022-09-09T12:43:51.061Z,97451.21
2022-09-09T12:46:37.874Z,97453.03
2022-09-09T12:49:07.614Z,97449.83
2022-09-09T12:51:35.849Z,97442.77
2022-09-09T12:54:05.844Z,97437.59
2022-09-09T12:56:34.579Z,97430.69
2022-09-09T12:59:02.657Z,97424.25
2022-09-09T13:01:34.717Z,97413.72
2022-09-09T13:04:03.131Z,97409.47
2022-09-09T13:06:33.132Z,97412.52
2022-09-09T13:09:03.110Z,97406.46
2022-09-09T13:11:48.478Z,97398.33
2022-09-09T13:14:20.610Z,97396.08
2022-09-09T13:17:04.757Z,97393.62
2022-09-09T13:19:46.817Z,97388.15
2022-09-09T13:22:37.136Z,97390.20
2022-09-09T13:25:11.263Z,97392.58
2022-09-09T13:27:41.398Z,97396.19
2022-09-09T13:30:26.743Z,97399.92
2022-09-09T13:33:24.224Z,97407.20
2022-09-09T13:35:56.958Z,97404.98
2022-09-09T13:38:27.674Z,97403.65
2022-09-09T13:41:05.679Z,97407.39
2022-09-09T13:43:56.544Z,97407.11
2022-09-09T13:46:42.945Z,97406.29
2022-09-09T13:49:11.674Z,97397.88
2022-09-09T13:51:48.182Z,97397.45
2022-09-09T13:54:19.821Z,97397.75
2022-09-09T13:56:48.331Z,97400.80
2022-09-09T13:59:20.955Z,97400.23
2022-09-09T14:01:54.009Z,97399.59
2022-09-09T14:04:22.153Z,97396.45
2022-09-09T14:06:51.491Z,97392.54
2022-09-09T14:09:19.465Z,97400.20
2022-09-09T14:11:47.499Z,97403.80
2022-09-09T14:14:15.601Z,97410.47
2022-09-09T14:16:43.460Z,97412.45
2022-09-09T14:19:11.452Z,97413.27
2022-09-09T14:21:40.121Z,97413.27
2022-09-09T14:24:08.152Z,97414.05
2022-09-09T14:26:36.385Z,97413.69
2022-09-09T14:29:04.441Z,97413.20
2022-09-09T14:31:32.409Z,97416.45
2022-09-09T14:34:00.567Z,97416.77
2022-09-09T14:36:28.524Z,97418.59
2022-09-09T14:38:56.723Z,97420.09
2022-09-09T14:41:24.722Z,97426.42
2022-09-09T14:43:53.419Z,97429.00
2022-09-09T14:46:21.997Z,97430.27
2022-09-09T14:48:50.874Z,97426.50
2022-09-09T14:51:24.880Z,97436.64
2022-09-09T14:53:54.945Z,97445.33
2022-09-09T14:56:25.613Z,97446.48
2022-09-09T14:58:59.028Z,97448.23
2022-09-09T15:01:28.487Z,97452.41
2022-09-09T15:04:01.975Z,97459.14
2022-09-09T15:06:34.062Z,97458.41
2022-09-09T15:09:02.764Z,97457.84
2022-09-09T15:11:35.605Z,97458.98
2022-09-09T15:14:03.577Z,97463.46
2022-09-09T15:16:32.894Z,97468.35
2022-09-09T15:19:03.585Z,97465.95
2022-09-09T15:21:35.867Z,97463.98
2022-09-09T15:24:04.232Z,97463.10
2022-09-09T15:26:32.286Z,97462.19
2022-09-09T15:29:00.479Z,97467.34
2022-09-09T15:31:31.645Z,97473.70
2022-09-09T15:34:07.433Z,97473.50
2022-09-09T15:36:41.260Z,97477.34
2022-09-09T15:39:16.847Z,97480.46
2022-09-09T15:41:48.011Z,97480.36
2022-09-09T15:44:17.231Z,97473.38
2022-09-09T15:46:52.489Z,97470.48
2022-09-09T15:49:28.321Z,97479.85
2022-09-09T15:51:58.785Z,97486.06
2022-09-09T15:54:28.013Z,97481.55
2022-09-09T15:56:59.502Z,97481.00
2022-09-09T15:59:30.014Z,97482.89
2022-09-09T16:01:59.028Z,97486.23
2022-09-09T16:04:31.614Z,97486.50
2022-09-09T16:07:02.996Z,97481.50
2022-09-09T16:09:32.331Z,97485.17
2022-09-09T16:12:02.320Z,97479.98
2022-09-09T16:14:35.244Z,97483.85
2022-09-09T16:17:04.686Z,97486.31
2022-09-09T16:19:33.363Z,97486.46
2022-09-09T16:22:02.372Z,97490.34
2022-09-09T16:24:30.409Z,97491.98
2022-09-09T16:26:58.245Z,97491.70
2022-09-09T16:29:28.445Z,97492.60
2022-09-09T16:32:01.192Z,97493.20
2022-09-09T16:34:31.085Z,97492.87
2022-09-09T16:36:59.051Z,97493.23
2022-09-09T16:39:26.896Z,97487.41
2022-09-09T16:41:54.972Z,97489.59
2022-09-09T16:44:23.387Z,97489.88
2022-09-09T16:46:58.105Z,97491.87
2022-09-09T16:49:29.528Z,97499.73
2022-09-09T16:52:00.081Z,97501.65
2022-09-09T16:54:28.426Z,97502.73
2022-09-09T16:56:56.812Z,97502.63
2022-09-09T16:59:24.714Z,97506.95
2022-09-09T17:01:53.572Z,97507.52
2022-09-09T17:04:29.163Z,97507.89
2022-09-09T17:06:58.622Z,97504.19
2022-09-09T17:09:30.281Z,97501.41
2022-09-09T17:11:59.721Z,97503.13
2022-09-09T17:14:27.858Z,97506.61
2022-09-09T17:17:01.968Z,97517.42
2022-09-09T17:19:37.115Z,97524.01
2022-09-09T17:22:20.240Z,97525.69
2022-09-09T17:24:48.496Z,97522.09
2022-09-09T17:27:16.453Z,97526.90
2022-09-09T17:29:44.294Z,97527.34
2022-09-09T17:32:12.506Z,97529.63
2022-09-09T17:34:40.386Z,97530.43
2022-09-09T17:37:08.716Z,97530.84
2022-09-09T17:39:36.744Z,97530.96
2022-09-09T17:42:04.705Z,97526.73
2022-09-09T17:44:33.502Z,97522.56
2022-09-09T17:47:01.570Z,97525.02
2022-09-09T17:49:29.672Z,97525.98
2022-09-09T17:51:57.706Z,97525.57
2022-09-09T17:54:25.533Z,97529.06
2022-09-09T17:56:53.573Z,97534.24
2022-09-09T17:59:21.547Z,97542.12
2022-09-09T18:01:50.985Z,97537.73
2022-09-09T18:04:19.992Z,97536.20
2022-09-09T18:06:51.132Z,97536.75
2022-09-09T18:09:23.406Z,97533.13
2022-09-09T18:11:54.750Z,97531.75
2022-09-09T18:14:26.075Z,97532.95
2022-09-09T18:16:54.621Z,97537.55
2022-09-09T18:19:24.906Z,97542.23
2022-09-09T18:21:53.403Z,97544.17
2022-09-09T18:24:22.069Z,97550.27
2022-09-09T18:26:50.761Z,97550.20
2022-09-09T18:29:21.478Z,97546.04
2022-09-09T18:31:49.388Z,97546.45
2022-09-09T18:34:18.558Z,97545.75
2022-09-09T18:36:52.246Z,97543.47
2022-09-09T18:39:21.479Z,97537.58
2022-09-09T18:41:52.727Z,97535.35
2022-09-09T18:44:23.778Z,97532.38
2022-09-09T18:46:52.694Z,97531.55
2022-09-09T18:49:22.788Z,97535.77
2022-09-09T18:51:50.818Z,97537.50
2022-09-09T18:54:21.901Z,97535.77
2022-09-09T18:56:50.645Z,97533.71
2022-09-09T18:59:21.340Z,97535.83
2022-09-09T19:01:51.056Z,97535.73
2022-09-09T19:04:21.276Z,97531.59
2022-09-09T19:06:51.858Z,97529.14
2022-09-09T19:09:19.643Z,97530.58
2022-09-09T19:11:48.011Z,97523.35
2022-09-09T19:14:18.185Z,97519.48
2022-09-09T19:16:48.794Z,97519.54
2022-09-09T19:19:23.556Z,97515.77
2022-09-09T19:21:51.864Z,97512.34
2022-09-09T19:24:23.104Z,97505.60
2022-09-09T19:26:53.940Z,97502.21
2022-09-09T19:29:25.002Z,97509.34
2022-09-09T19:32:36.364Z,97508.97
2022-09-09T19:34:44.249Z,97513.56
2022-09-09T19:37:17.779Z,97517.38
2022-09-09T19:39:47.910Z,97520.45
2022-09-09T19:42:15.935Z,97513.61
2022-09-09T19:44:43.981Z,97507.86
2022-09-09T19:47:14.394Z,97505.20
2022-09-09T19:49:46.745Z,97501.64
2022-09-09T19:52:17.281Z,97503.25
2022-09-09T19:54:46.738Z,97503.91
2022-09-09T19:57:14.651Z,97505.70
2022-09-09T19:59:42.538Z,97505.60
2022-09-09T20:02:13.518Z,97506.15
2022-09-09T20:04:42.357Z,97501.69
2022-09-09T20:07:10.532Z,97500.61
2022-09-09T20:09:38.513Z,97504.67
2022-09-09T20:12:06.606Z,97503.80
2022-09-09T20:14:39.137Z,97500.57
2022-09-09T20:17:08.678Z,97499.20
2022-09-09T20:19:36.636Z,97502.73
2022-09-09T20:22:04.499Z,97509.55
2022-09-09T20:24:32.483Z,97511.43
2022-09-09T20:27:00.338Z,97503.32
2022-09-09T20:29:28.202Z,97494.55
2022-09-09T20:31:56.057Z,97491.12
2022-09-09T20:34:25.975Z,97492.63
2022-09-09T20:36:54.780Z,97494.48
2022-09-09T20:39:23.234Z,97494.64
2022-09-09T20:41:51.266Z,97492.36
2022-09-09T20:44:22.912Z,97492.17
2022-09-09T20:46:55.555Z,97488.77
2022-09-09T20:49:24.519Z,97489.09
2022-09-09T20:51:53.873Z,97498.05
2022-09-09T20:54:28.066Z,97499.89
2022-09-09T20:56:56.679Z,97497.30
2022-09-09T20:59:27.000Z,97495.73
2022-09-09T21:01:57.101Z,97496.25
2022-09-09T21:04:26.175Z,97495.63
2022-09-09T21:06:54.167Z,97498.88
2022-09-09T21:09:24.845Z,97495.20
2022-09-09T21:11:53.820Z,97489.53
2022-09-09T21:14:22.221Z,97492.47
2022-09-09T21:16:50.562Z,97492.73
2022-09-09T21:19:18.861Z,97495.81
2022-09-09T21:21:48.045Z,97496.83
2022-09-09T21:24:16.729Z,97497.38
2022-09-09T21:26:44.614Z,97493.86
2022-09-09T21:29:13.301Z,97486.98
2022-09-09T21:31:41.602Z,97488.80
2022-09-09T21:34:09.870Z,97491.20
2022-09-09T21:36:37.682Z,97491.48
2022-09-09T21:39:05.469Z,97483.14
2022-09-09T21:41:33.315Z,97478.59
2022-09-09T21:44:01.375Z,97478.23
2022-09-09T21:46:29.376Z,97486.20
2022-09-09T21:48:58.623Z,97492.02
2022-09-09T21:51:26.581Z,97494.86
2022-09-09T21:53:56.514Z,97496.21
2022-09-09T21:56:24.787Z,97495.34
2022-09-09T21:59:02.401Z,97499.23
2022-09-09T22:01:33.235Z,97497.46
2022-09-09T22:04:02.119Z,97493.28
2022-09-09T22:06:30.113Z,97485.86
2022-09-09T22:08:59.617Z,97477.65
2022-09-09T22:11:28.213Z,97473.22
2022-09-09T22:13:56.222Z,97471.97
2022-09-09T22:16:25.817Z,97464.16
2022-09-09T22:18:56.992Z,97461.31
2022-09-09T22:21:27.341Z,97453.31
2022-09-09T22:23:58.163Z,97453.73
2022-09-09T22:26:29.107Z,97454.17
2022-09-09T22:28:57.461Z,97453.06
2022-09-09T22:31:26.548Z,97455.36
2022-09-09T22:33:55.718Z,97457.20
2022-09-09T22:36:26.633Z,97455.98
2022-09-09T22:38:55.971Z,97450.16
2022-09-09T22:41:25.001Z,97450.91
2022-09-09T22:43:53.704Z,97446.59
2022-09-09T22:46:23.886Z,97439.25
2022-09-09T22:48:51.796Z,97433.89
2022-09-09T22:51:19.615Z,97433.45
2022-09-09T22:53:47.550Z,97433.88
2022-09-09T22:56:19.048Z,97429.65
2022-09-09T22:58:47.597Z,97429.59
2022-09-09T23:01:19.515Z,97433.42
2022-09-09T23:03:49.542Z,97440.02
2022-09-09T23:06:23.157Z,97434.83
2022-09-09T23:08:57.320Z,97432.00
2022-09-09T23:11:30.567Z,97428.51
2022-09-09T23:14:01.977Z,97429.53
2022-09-09T23:16:35.399Z,97428.88
2022-09-09T23:19:03.472Z,97426.98
2022-09-09T23:21:32.326Z,97424.46
2022-09-09T23:24:00.654Z,97424.72
2022-09-09T23:26:30.070Z,97421.96
2022-09-09T23:28:59.576Z,97421.89
2022-09-09T23:31:30.252Z,97420.55
2022-09-09T23:34:01.287Z,97416.41
2022-09-09T23:36:31.012Z,97418.02
2022-09-09T23:39:02.639Z,97422.51
2022-09-09T23:41:32.121Z,97426.42
2022-09-09T23:44:01.858Z,97429.75
2022-09-09T23:46:31.549Z,97432.04
2022-09-09T23:49:00.083Z,97437.69
2022-09-09T23:51:30.846Z,97435.19
2022-09-09T23:54:03.802Z,97432.48
2022-09-09T23:56:35.450Z,97431.77
2022-09-09T23:59:06.087Z,97420.90
